Mountain Lake, MN

6:22 PM CST on March 06, 2015 (GMT -0600)
Fairmont Municipal | Change Station
CLOSE
Current Station
Airport
Location: Fairmont,
Elevation: 1161 ft
Nearby Weather Stations

Elev 1161 ft 43.65 °N, 94.42 °W | Updated 7 minutes ago

Clear
Clear
36 °F
Feels Like 30 °F
N
7
Wind Variable Wind from NW

Today
High -- | Low -- °F
--% Chance of Precip.
Yesterday
High -- | Low -- °F
Precip. -- in
6:48 AM 6:14 PM
Full, 99% visible
Pressure 30.08 in
Visibility 10.0 miles
Clouds Clear
Windchill 30 °F
Dew Point 23 °F
Humidity 60%
Rainfall 0.00 in
Snow Depth Not available.
UV 0 out of 12
Pollen .40 out of 12
Air Quality Not available.
Flu Activity Not available.
METAR KFRM 070015Z AUTO 32006KT 10SM CLR 02/M05 A3008 RMK AO1

More Conditions Fewer Conditions

Pressure 30.08 in
Visibility 10.0 miles
Clouds Clear
Windchill 30 °F
Dew Point 23 °F
Humidity 60%
Rainfall 0.00 in
Snow Depth Not available.
UV 0 out of 12
Pollen .40 out of 12
Air Quality Not available.
Flu Activity Not available.
METAR KFRM 070015Z AUTO 32006KT 10SM CLR 02/M05 A3008 RMK AO1

More Conditions Fewer Conditions

10-Day Weather Forecast

Almanac

Astronomy

Mar. 06, 2015 Rise Set
Actual Time
Civil Twilight
Nautical Twilight
Astronomical Twilight
Moon
Length of Visible Light
Length of Day
Tomorrow will be .
, % of the Moon is Illuminated

Today's Extremes

State Highs State Lows

Community

WunderPhotos

Upload Photos

1,803,468 photos uploaded!

WunderBlogs® & News

Nearby

Air Quality

  Air Quality AQ Index Pollutant
Not available.

Snow Depth

Station Depth Elevation

Earthquake Activity

City Distance Mag. Time & Date
Minimum magnitude displayed is 2.5.

Coastal Water Temperatures

Place Temperature

Nearby Weather Stations